Etusivu
METAR-TAF:

METAR-TAF

Lentoasemat :

Malpensan kansainvälinen lentoasema

Milano, Italia

Leveyspiiri: 45-37N, Pituuspiiri: 008-44E, korkeus merenpinnasta: 234 m

Tämänhetkinen sää

Tämä raportti tehtiin 23 minuuttia sitten, kello 08.50 UTC
Tuuli 3 kn pohjoisesta
Lämpötila 8°C
Kosteus 76%
Ilmanpaine 1026 hPa
Näkyvyys: 6000 m
Hajonneita pilviä 5000 ft:n korkeudessa

METAR: LIMC 170850Z 36003KT 6000 BKN050 08/04 Q1026 NOSIG

Aika: 10:13 (09:13 UTC)

Sääennuste

Tämä raportti tehtiin 4 tuntia ja 13 minuuttia sitten, kello 05.00 UTC
Ennuste voimassa 17. päivästä klo 06 UTC - 18. päivään klo 12 UTC
Tuuli 5 kn eri suunnista
Näkyvyys: 6000 m
Hajanaisia pilviä 6000 ft:n korkeudessa
Ajoittain
17. päivästä klo 12 UTC - 17. päivään klo 24 UTC
sadetta

TAF: LIMC 170500Z 1706/1812 VRB05KT 6000 SCT060 TEMPO 1712/1724 RA

Säähavainnot ja -ennusteet yli 4000 lentoasemalta (METAR- ja TAF-raportit).

Käytössä olevat sääasemat on merkitty karttaan keltaisilla ja punaisilla pisteillä.

Aseta hiiri pisteen päälle nähdäksesi sääaseman nimen.

Klikkaa sitten nähdäksesi säähavainnot ja -ennusteet.

Kartan vaihtaminen: klikkaa mustalla rastilla varustettuja vihreitä pisteitä, niin voit zoomata sisään; viivalla varustettua vihreää pistettä, niin voit zoomata ulos tai vihreitä nuolia, niin pääset viereisille kartoille.


METAR-TAF: